sensor_id;sensor_type;location;lat;lon;timestamp;P1;durP1;ratioP1;P2;durP2;ratioP2
72337;SDS011;60294;64.134;-21.862;2022-11-27T00:02:12;1.13;;;0.70;;
72337;SDS011;60294;64.134;-21.862;2022-11-27T00:04:37;0.40;;;0.40;;
72337;SDS011;60294;64.134;-21.862;2022-11-27T00:07:03;0.20;;;0.20;;
72337;SDS011;60294;64.134;-21.862;2022-11-27T00:09:29;1.10;;;0.53;;
72337;SDS011;60294;64.134;-21.862;2022-11-27T00:11:55;0.73;;;0.40;;
72337;SDS011;60294;64.134;-21.862;2022-11-27T00:14:20;1.10;;;0.57;;
72337;SDS011;60294;64.134;-21.862;2022-11-27T00:16:46;0.50;;;0.37;;
72337;SDS011;60294;64.134;-21.862;2022-11-27T00:19:12;3.53;;;0.47;;
72337;SDS011;60294;64.134;-21.862;2022-11-27T00:21:38;0.60;;;0.50;;
72337;SDS011;60294;64.134;-21.862;2022-11-27T00:24:04;0.97;;;0.43;;
72337;SDS011;60294;64.134;-21.862;2022-11-27T00:26:31;0.40;;;0.40;;
72337;SDS011;60294;64.134;-21.862;2022-11-27T00:28:58;0.47;;;0.40;;
72337;SDS011;60294;64.134;-21.862;2022-11-27T00:31:29;0.20;;;0.20;;
72337;SDS011;60294;64.134;-21.862;2022-11-27T00:33:59;0.43;;;0.30;;
72337;SDS011;60294;64.134;-21.862;2022-11-27T00:36:27;0.37;;;0.30;;
72337;SDS011;60294;64.134;-21.862;2022-11-27T00:38:54;2.87;;;0.40;;
72337;SDS011;60294;64.134;-21.862;2022-11-27T00:41:21;1.43;;;0.43;;
72337;SDS011;60294;64.134;-21.862;2022-11-27T00:43:49;2.20;;;0.70;;
72337;SDS011;60294;64.134;-21.862;2022-11-27T00:46:16;1.60;;;0.70;;
72337;SDS011;60294;64.134;-21.862;2022-11-27T00:48:44;0.50;;;0.47;;
72337;SDS011;60294;64.134;-21.862;2022-11-27T00:51:12;1.07;;;0.60;;
72337;SDS011;60294;64.134;-21.862;2022-11-27T00:53:40;0.50;;;0.47;;
72337;SDS011;60294;64.134;-21.862;2022-11-27T00:56:06;0.80;;;0.50;;
72337;SDS011;60294;64.134;-21.862;2022-11-27T00:58:33;2.93;;;0.90;;
72337;SDS011;60294;64.134;-21.862;2022-11-27T01:01:01;1.13;;;0.60;;
72337;SDS011;60294;64.134;-21.862;2022-11-27T01:03:29;0.90;;;0.50;;
72337;SDS011;60294;64.134;-21.862;2022-11-27T01:05:55;0.73;;;0.60;;
72337;SDS011;60294;64.134;-21.862;2022-11-27T01:08:21;1.73;;;0.70;;
72337;SDS011;60294;64.134;-21.862;2022-11-27T01:10:49;1.47;;;0.70;;
72337;SDS011;60294;64.134;-21.862;2022-11-27T01:13:22;2.38;;;0.70;;
72337;SDS011;60294;64.134;-21.862;2022-11-27T01:15:57;2.37;;;0.93;;
72337;SDS011;60294;64.134;-21.862;2022-11-27T01:18:28;1.60;;;0.63;;
72337;SDS011;60294;64.134;-21.862;2022-11-27T01:20:55;2.00;;;0.90;;
72337;SDS011;60294;64.134;-21.862;2022-11-27T01:23:21;0.90;;;0.50;;
72337;SDS011;60294;64.134;-21.862;2022-11-27T01:25:48;0.40;;;0.40;;
72337;SDS011;60294;64.134;-21.862;2022-11-27T01:28:14;1.23;;;0.50;;
72337;SDS011;60294;64.134;-21.862;2022-11-27T01:30:41;0.77;;;0.50;;
72337;SDS011;60294;64.134;-21.862;2022-11-27T01:33:07;0.43;;;0.30;;
72337;SDS011;60294;64.134;-21.862;2022-11-27T01:35:32;0.37;;;0.30;;
72337;SDS011;60294;64.134;-21.862;2022-11-27T01:37:58;0.20;;;0.20;;
72337;SDS011;60294;64.134;-21.862;2022-11-27T01:40:24;0.23;;;0.20;;
72337;SDS011;60294;64.134;-21.862;2022-11-27T01:42:50;0.77;;;0.40;;
72337;SDS011;60294;64.134;-21.862;2022-11-27T01:45:17;0.30;;;0.30;;
72337;SDS011;60294;64.134;-21.862;2022-11-27T01:47:45;2.10;;;0.30;;
72337;SDS011;60294;64.134;-21.862;2022-11-27T01:50:21;0.20;;;0.20;;
72337;SDS011;60294;64.134;-21.862;2022-11-27T01:52:52;0.20;;;0.20;;
72337;SDS011;60294;64.134;-21.862;2022-11-27T01:57:48;0.50;;;0.40;;
72337;SDS011;60294;64.134;-21.862;2022-11-27T02:00:20;0.50;;;0.30;;
72337;SDS011;60294;64.134;-21.862;2022-11-27T02:02:47;1.47;;;0.30;;
72337;SDS011;60294;64.134;-21.862;2022-11-27T02:05:15;0.43;;;0.20;;
72337;SDS011;60294;64.134;-21.862;2022-11-27T02:07:44;0.40;;;0.30;;
72337;SDS011;60294;64.134;-21.862;2022-11-27T02:10:10;0.30;;;0.30;;
72337;SDS011;60294;64.134;-21.862;2022-11-27T02:15:30;2.00;;;0.50;;
72337;SDS011;60294;64.134;-21.862;2022-11-27T02:18:09;0.40;;;0.30;;
72337;SDS011;60294;64.134;-21.862;2022-11-27T02:20:47;0.33;;;0.20;;
72337;SDS011;60294;64.134;-21.862;2022-11-27T02:29:16;0.20;;;0.20;;
72337;SDS011;60294;64.134;-21.862;2022-11-27T02:37:23;0.30;;;0.30;;
72337;SDS011;60294;64.134;-21.862;2022-11-27T02:42:42;0.77;;;0.30;;
72337;SDS011;60294;64.134;-21.862;2022-11-27T02:45:30;0.50;;;0.30;;
72337;SDS011;60294;64.134;-21.862;2022-11-27T02:48:05;0.43;;;0.20;;
72337;SDS011;60294;64.134;-21.862;2022-11-27T02:50:33;0.70;;;0.30;;
72337;SDS011;60294;64.134;-21.862;2022-11-27T02:53:02;10.03;;;3.13;;
72337;SDS011;60294;64.134;-21.862;2022-11-27T02:55:33;16.57;;;4.90;;
72337;SDS011;60294;64.134;-21.862;2022-11-27T02:58:03;14.17;;;4.03;;
72337;SDS011;60294;64.134;-21.862;2022-11-27T03:00:33;8.53;;;2.60;;
72337;SDS011;60294;64.134;-21.862;2022-11-27T03:03:00;6.10;;;1.17;;
72337;SDS011;60294;64.134;-21.862;2022-11-27T03:05:31;3.83;;;1.07;;
72337;SDS011;60294;64.134;-21.862;2022-11-27T03:10:46;2.13;;;0.50;;
72337;SDS011;60294;64.134;-21.862;2022-11-27T03:13:18;0.40;;;0.40;;
72337;SDS011;60294;64.134;-21.862;2022-11-27T03:18:29;0.30;;;0.30;;
72337;SDS011;60294;64.134;-21.862;2022-11-27T03:21:09;0.20;;;0.20;;
72337;SDS011;60294;64.134;-21.862;2022-11-27T03:24:06;0.20;;;0.20;;
72337;SDS011;60294;64.134;-21.862;2022-11-27T03:26:33;0.30;;;0.30;;
72337;SDS011;60294;64.134;-21.862;2022-11-27T03:28:59;0.20;;;0.20;;
72337;SDS011;60294;64.134;-21.862;2022-11-27T03:31:27;1.10;;;0.30;;
72337;SDS011;60294;64.134;-21.862;2022-11-27T03:33:53;0.80;;;0.40;;
72337;SDS011;60294;64.134;-21.862;2022-11-27T03:36:20;0.60;;;0.23;;
72337;SDS011;60294;64.134;-21.862;2022-11-27T03:38:46;1.20;;;0.40;;
72337;SDS011;60294;64.134;-21.862;2022-11-27T03:43:49;0.50;;;0.30;;
72337;SDS011;60294;64.134;-21.862;2022-11-27T03:47:11;0.20;;;0.20;;
72337;SDS011;60294;64.134;-21.862;2022-11-27T03:49:38;0.32;;;0.30;;
72337;SDS011;60294;64.134;-21.862;2022-11-27T03:55:00;0.30;;;0.30;;
72337;SDS011;60294;64.134;-21.862;2022-11-27T03:57:45;1.67;;;0.20;;
72337;SDS011;60294;64.134;-21.862;2022-11-27T04:00:29;0.20;;;0.20;;
72337;SDS011;60294;64.134;-21.862;2022-11-27T04:02:58;0.33;;;0.30;;
72337;SDS011;60294;64.134;-21.862;2022-11-27T04:05:26;0.20;;;0.20;;
72337;SDS011;60294;64.134;-21.862;2022-11-27T04:07:52;1.60;;;0.40;;
72337;SDS011;60294;64.134;-21.862;2022-11-27T04:10:17;0.20;;;0.20;;
72337;SDS011;60294;64.134;-21.862;2022-11-27T04:12:43;0.20;;;0.20;;
72337;SDS011;60294;64.134;-21.862;2022-11-27T04:15:09;0.70;;;0.33;;
72337;SDS011;60294;64.134;-21.862;2022-11-27T04:17:36;0.20;;;0.20;;
72337;SDS011;60294;64.134;-21.862;2022-11-27T04:20:01;0.20;;;0.20;;
72337;SDS011;60294;64.134;-21.862;2022-11-27T04:22:28;0.33;;;0.30;;
72337;SDS011;60294;64.134;-21.862;2022-11-27T04:24:53;0.30;;;0.20;;
72337;SDS011;60294;64.134;-21.862;2022-11-27T04:27:20;0.83;;;0.40;;
72337;SDS011;60294;64.134;-21.862;2022-11-27T04:29:45;0.20;;;0.20;;
72337;SDS011;60294;64.134;-21.862;2022-11-27T04:32:11;0.20;;;0.20;;
72337;SDS011;60294;64.134;-21.862;2022-11-27T04:34:37;0.43;;;0.20;;
72337;SDS011;60294;64.134;-21.862;2022-11-27T04:37:03;0.23;;;0.20;;
72337;SDS011;60294;64.134;-21.862;2022-11-27T04:39:29;0.27;;;0.27;;
72337;SDS011;60294;64.134;-21.862;2022-11-27T04:41:54;0.20;;;0.20;;
72337;SDS011;60294;64.134;-21.862;2022-11-27T04:44:20;0.20;;;0.20;;
72337;SDS011;60294;64.134;-21.862;2022-11-27T04:46:47;0.20;;;0.20;;
72337;SDS011;60294;64.134;-21.862;2022-11-27T04:49:13;0.20;;;0.20;;
72337;SDS011;60294;64.134;-21.862;2022-11-27T04:51:39;0.30;;;0.20;;
72337;SDS011;60294;64.134;-21.862;2022-11-27T04:54:05;1.50;;;0.30;;
72337;SDS011;60294;64.134;-21.862;2022-11-27T04:56:31;0.20;;;0.20;;
72337;SDS011;60294;64.134;-21.862;2022-11-27T04:58:57;0.10;;;0.10;;
72337;SDS011;60294;64.134;-21.862;2022-11-27T05:01:22;0.43;;;0.30;;
72337;SDS011;60294;64.134;-21.862;2022-11-27T05:03:48;2.10;;;0.40;;
72337;SDS011;60294;64.134;-21.862;2022-11-27T05:06:14;0.67;;;0.37;;
72337;SDS011;60294;64.134;-21.862;2022-11-27T05:08:40;3.30;;;0.33;;
72337;SDS011;60294;64.134;-21.862;2022-11-27T05:11:07;2.47;;;0.33;;
72337;SDS011;60294;64.134;-21.862;2022-11-27T05:13:36;0.20;;;0.20;;
72337;SDS011;60294;64.134;-21.862;2022-11-27T05:16:02;0.40;;;0.30;;
72337;SDS011;60294;64.134;-21.862;2022-11-27T05:18:28;0.30;;;0.30;;
72337;SDS011;60294;64.134;-21.862;2022-11-27T05:20:55;0.10;;;0.10;;
72337;SDS011;60294;64.134;-21.862;2022-11-27T05:23:28;0.20;;;0.20;;
72337;SDS011;60294;64.134;-21.862;2022-11-27T05:25:54;0.10;;;0.10;;
72337;SDS011;60294;64.134;-21.862;2022-11-27T05:28:20;0.20;;;0.20;;
72337;SDS011;60294;64.134;-21.862;2022-11-27T05:30:47;0.30;;;0.30;;
72337;SDS011;60294;64.134;-21.862;2022-11-27T05:33:14;0.30;;;0.20;;
72337;SDS011;60294;64.134;-21.862;2022-11-27T05:35:41;0.20;;;0.20;;
72337;SDS011;60294;64.134;-21.862;2022-11-27T05:38:08;0.30;;;0.30;;
72337;SDS011;60294;64.134;-21.862;2022-11-27T05:40:34;0.20;;;0.20;;
72337;SDS011;60294;64.134;-21.862;2022-11-27T05:42:59;0.20;;;0.20;;
72337;SDS011;60294;64.134;-21.862;2022-11-27T05:45:25;0.23;;;0.23;;
72337;SDS011;60294;64.134;-21.862;2022-11-27T05:47:51;0.10;;;0.10;;
72337;SDS011;60294;64.134;-21.862;2022-11-27T05:50:17;0.40;;;0.30;;
72337;SDS011;60294;64.134;-21.862;2022-11-27T05:52:43;1.03;;;0.50;;
72337;SDS011;60294;64.134;-21.862;2022-11-27T05:55:08;0.20;;;0.20;;
72337;SDS011;60294;64.134;-21.862;2022-11-27T05:57:34;0.20;;;0.20;;
72337;SDS011;60294;64.134;-21.862;2022-11-27T06:00:00;0.30;;;0.30;;
72337;SDS011;60294;64.134;-21.862;2022-11-27T06:02:26;0.10;;;0.10;;
72337;SDS011;60294;64.134;-21.862;2022-11-27T06:04:52;0.30;;;0.30;;
72337;SDS011;60294;64.134;-21.862;2022-11-27T06:07:18;0.33;;;0.30;;
72337;SDS011;60294;64.134;-21.862;2022-11-27T06:09:43;0.20;;;0.20;;
72337;SDS011;60294;64.134;-21.862;2022-11-27T06:12:09;0.20;;;0.20;;
72337;SDS011;60294;64.134;-21.862;2022-11-27T06:14:35;0.20;;;0.20;;
72337;SDS011;60294;64.134;-21.862;2022-11-27T06:17:01;0.10;;;0.10;;
72337;SDS011;60294;64.134;-21.862;2022-11-27T06:19:27;1.23;;;0.20;;
72337;SDS011;60294;64.134;-21.862;2022-11-27T06:21:54;0.17;;;0.17;;
72337;SDS011;60294;64.134;-21.862;2022-11-27T06:24:19;0.37;;;0.33;;
72337;SDS011;60294;64.134;-21.862;2022-11-27T06:26:45;0.30;;;0.20;;
72337;SDS011;60294;64.134;-21.862;2022-11-27T06:29:11;0.87;;;0.30;;
72337;SDS011;60294;64.134;-21.862;2022-11-27T06:31:37;0.30;;;0.30;;
72337;SDS011;60294;64.134;-21.862;2022-11-27T06:34:04;0.70;;;0.30;;
72337;SDS011;60294;64.134;-21.862;2022-11-27T06:36:31;0.23;;;0.23;;
72337;SDS011;60294;64.134;-21.862;2022-11-27T06:38:59;2.40;;;0.30;;
72337;SDS011;60294;64.134;-21.862;2022-11-27T06:41:25;1.13;;;0.40;;
72337;SDS011;60294;64.134;-21.862;2022-11-27T06:43:52;0.33;;;0.20;;
72337;SDS011;60294;64.134;-21.862;2022-11-27T06:46:19;0.20;;;0.20;;
72337;SDS011;60294;64.134;-21.862;2022-11-27T06:48:48;0.47;;;0.30;;
72337;SDS011;60294;64.134;-21.862;2022-11-27T06:51:16;0.30;;;0.30;;
72337;SDS011;60294;64.134;-21.862;2022-11-27T06:53:44;0.40;;;0.27;;
72337;SDS011;60294;64.134;-21.862;2022-11-27T06:56:11;2.27;;;0.70;;
72337;SDS011;60294;64.134;-21.862;2022-11-27T06:58:38;0.20;;;0.20;;
72337;SDS011;60294;64.134;-21.862;2022-11-27T07:01:08;1.60;;;0.30;;
72337;SDS011;60294;64.134;-21.862;2022-11-27T07:03:38;0.30;;;0.30;;
72337;SDS011;60294;64.134;-21.862;2022-11-27T07:06:05;0.40;;;0.40;;
72337;SDS011;60294;64.134;-21.862;2022-11-27T07:08:33;0.23;;;0.23;;
72337;SDS011;60294;64.134;-21.862;2022-11-27T07:11:00;0.20;;;0.20;;
72337;SDS011;60294;64.134;-21.862;2022-11-27T07:13:28;0.20;;;0.20;;
72337;SDS011;60294;64.134;-21.862;2022-11-27T07:15:54;0.20;;;0.20;;
72337;SDS011;60294;64.134;-21.862;2022-11-27T07:18:23;0.27;;;0.20;;
72337;SDS011;60294;64.134;-21.862;2022-11-27T07:20:52;0.20;;;0.20;;
72337;SDS011;60294;64.134;-21.862;2022-11-27T07:23:18;0.20;;;0.20;;
72337;SDS011;60294;64.134;-21.862;2022-11-27T07:25:43;0.30;;;0.30;;
72337;SDS011;60294;64.134;-21.862;2022-11-27T07:28:10;0.20;;;0.20;;
72337;SDS011;60294;64.134;-21.862;2022-11-27T07:30:36;1.27;;;0.20;;
72337;SDS011;60294;64.134;-21.862;2022-11-27T07:33:02;0.20;;;0.20;;
72337;SDS011;60294;64.134;-21.862;2022-11-27T07:35:28;0.53;;;0.30;;
72337;SDS011;60294;64.134;-21.862;2022-11-27T07:37:54;0.30;;;0.30;;
72337;SDS011;60294;64.134;-21.862;2022-11-27T07:40:20;0.43;;;0.30;;
72337;SDS011;60294;64.134;-21.862;2022-11-27T07:42:45;0.30;;;0.30;;
72337;SDS011;60294;64.134;-21.862;2022-11-27T07:45:11;1.00;;;0.23;;
72337;SDS011;60294;64.134;-21.862;2022-11-27T07:47:37;0.30;;;0.27;;
72337;SDS011;60294;64.134;-21.862;2022-11-27T07:50:04;0.30;;;0.30;;
72337;SDS011;60294;64.134;-21.862;2022-11-27T07:52:33;0.40;;;0.30;;
72337;SDS011;60294;64.134;-21.862;2022-11-27T07:54:59;0.57;;;0.27;;
72337;SDS011;60294;64.134;-21.862;2022-11-27T07:57:26;0.20;;;0.20;;
72337;SDS011;60294;64.134;-21.862;2022-11-27T07:59:52;0.20;;;0.20;;
72337;SDS011;60294;64.134;-21.862;2022-11-27T08:02:18;0.47;;;0.20;;
72337;SDS011;60294;64.134;-21.862;2022-11-27T08:04:44;0.87;;;0.30;;
72337;SDS011;60294;64.134;-21.862;2022-11-27T08:07:10;0.10;;;0.10;;
72337;SDS011;60294;64.134;-21.862;2022-11-27T08:09:36;0.20;;;0.20;;
72337;SDS011;60294;64.134;-21.862;2022-11-27T08:12:04;0.73;;;0.73;;
72337;SDS011;60294;64.134;-21.862;2022-11-27T08:14:31;0.30;;;0.30;;
72337;SDS011;60294;64.134;-21.862;2022-11-27T08:16:57;0.20;;;0.20;;
72337;SDS011;60294;64.134;-21.862;2022-11-27T08:19:23;0.40;;;0.30;;
72337;SDS011;60294;64.134;-21.862;2022-11-27T08:21:49;0.43;;;0.30;;
72337;SDS011;60294;64.134;-21.862;2022-11-27T08:24:15;0.20;;;0.20;;
72337;SDS011;60294;64.134;-21.862;2022-11-27T08:26:41;0.47;;;0.30;;
72337;SDS011;60294;64.134;-21.862;2022-11-27T08:29:08;0.20;;;0.20;;
72337;SDS011;60294;64.134;-21.862;2022-11-27T08:31:36;1.27;;;0.30;;
72337;SDS011;60294;64.134;-21.862;2022-11-27T08:34:01;1.20;;;1.10;;
72337;SDS011;60294;64.134;-21.862;2022-11-27T08:36:27;0.10;;;0.10;;
72337;SDS011;60294;64.134;-21.862;2022-11-27T08:38:53;0.10;;;0.10;;
72337;SDS011;60294;64.134;-21.862;2022-11-27T08:41:20;1.10;;;0.27;;
72337;SDS011;60294;64.134;-21.862;2022-11-27T08:43:46;0.20;;;0.20;;
72337;SDS011;60294;64.134;-21.862;2022-11-27T08:46:12;1.20;;;0.30;;
72337;SDS011;60294;64.134;-21.862;2022-11-27T08:48:37;1.47;;;0.40;;
72337;SDS011;60294;64.134;-21.862;2022-11-27T08:51:05;0.63;;;0.40;;
72337;SDS011;60294;64.134;-21.862;2022-11-27T08:53:32;1.30;;;0.30;;
72337;SDS011;60294;64.134;-21.862;2022-11-27T08:56:10;0.33;;;0.20;;
72337;SDS011;60294;64.134;-21.862;2022-11-27T08:58:39;0.60;;;0.30;;
72337;SDS011;60294;64.134;-21.862;2022-11-27T09:01:06;0.10;;;0.10;;
72337;SDS011;60294;64.134;-21.862;2022-11-27T09:03:33;0.23;;;0.23;;
72337;SDS011;60294;64.134;-21.862;2022-11-27T09:05:58;0.10;;;0.10;;
72337;SDS011;60294;64.134;-21.862;2022-11-27T09:08:24;0.20;;;0.20;;
72337;SDS011;60294;64.134;-21.862;2022-11-27T09:10:50;0.87;;;0.20;;
72337;SDS011;60294;64.134;-21.862;2022-11-27T09:13:16;0.37;;;0.37;;
72337;SDS011;60294;64.134;-21.862;2022-11-27T09:15:42;1.40;;;0.20;;
72337;SDS011;60294;64.134;-21.862;2022-11-27T09:18:07;1.30;;;0.30;;
72337;SDS011;60294;64.134;-21.862;2022-11-27T09:20:33;0.10;;;0.10;;
72337;SDS011;60294;64.134;-21.862;2022-11-27T09:22:59;5.63;;;0.73;;
72337;SDS011;60294;64.134;-21.862;2022-11-27T09:25:26;0.30;;;0.20;;
72337;SDS011;60294;64.134;-21.862;2022-11-27T09:27:53;1.37;;;0.30;;
72337;SDS011;60294;64.134;-21.862;2022-11-27T09:30:19;1.03;;;0.20;;
72337;SDS011;60294;64.134;-21.862;2022-11-27T09:32:45;1.23;;;0.30;;
72337;SDS011;60294;64.134;-21.862;2022-11-27T09:35:11;0.10;;;0.10;;
72337;SDS011;60294;64.134;-21.862;2022-11-27T09:37:36;0.40;;;0.30;;
72337;SDS011;60294;64.134;-21.862;2022-11-27T09:40:02;2.77;;;0.47;;
72337;SDS011;60294;64.134;-21.862;2022-11-27T09:42:35;0.33;;;0.17;;
72337;SDS011;60294;64.134;-21.862;2022-11-27T09:45:07;0.77;;;0.33;;
72337;SDS011;60294;64.134;-21.862;2022-11-27T09:47:39;1.27;;;0.20;;
72337;SDS011;60294;64.134;-21.862;2022-11-27T09:50:40;0.10;;;0.10;;
72337;SDS011;60294;64.134;-21.862;2022-11-27T09:53:35;2.93;;;0.27;;
72337;SDS011;60294;64.134;-21.862;2022-11-27T09:56:02;2.47;;;0.40;;
72337;SDS011;60294;64.134;-21.862;2022-11-27T09:58:40;0.43;;;0.20;;
72337;SDS011;60294;64.134;-21.862;2022-11-27T10:01:31;1.23;;;0.20;;
72337;SDS011;60294;64.134;-21.862;2022-11-27T10:03:59;0.20;;;0.20;;
72337;SDS011;60294;64.134;-21.862;2022-11-27T10:12:00;0.10;;;0.10;;
72337;SDS011;60294;64.134;-21.862;2022-11-27T10:17:19;1.40;;;0.30;;
72337;SDS011;60294;64.134;-21.862;2022-11-27T10:20:04;1.53;;;0.20;;
72337;SDS011;60294;64.134;-21.862;2022-11-27T10:30:38;0.20;;;0.20;;
72337;SDS011;60294;64.134;-21.862;2022-11-27T10:33:17;2.87;;;1.07;;
72337;SDS011;60294;64.134;-21.862;2022-11-27T10:35:48;0.23;;;0.20;;
72337;SDS011;60294;64.134;-21.862;2022-11-27T10:38:24;0.23;;;0.20;;
72337;SDS011;60294;64.134;-21.862;2022-11-27T10:43:40;0.10;;;0.10;;
72337;SDS011;60294;64.134;-21.862;2022-11-27T10:46:14;0.43;;;0.30;;
72337;SDS011;60294;64.134;-21.862;2022-11-27T10:48:46;0.23;;;0.20;;
72337;SDS011;60294;64.134;-21.862;2022-11-27T10:51:16;0.80;;;0.30;;
72337;SDS011;60294;64.134;-21.862;2022-11-27T10:53:45;0.10;;;0.10;;
72337;SDS011;60294;64.134;-21.862;2022-11-27T10:58:59;0.17;;;0.17;;
72337;SDS011;60294;64.134;-21.862;2022-11-27T11:01:39;0.10;;;0.10;;
72337;SDS011;60294;64.134;-21.862;2022-11-27T11:04:10;0.10;;;0.10;;
72337;SDS011;60294;64.134;-21.862;2022-11-27T11:06:43;0.67;;;0.20;;
72337;SDS011;60294;64.134;-21.862;2022-11-27T11:11:41;0.67;;;0.20;;
72337;SDS011;60294;64.134;-21.862;2022-11-27T11:14:14;0.97;;;0.20;;
72337;SDS011;60294;64.134;-21.862;2022-11-27T11:16:48;0.10;;;0.10;;
72337;SDS011;60294;64.134;-21.862;2022-11-27T11:19:20;0.17;;;0.17;;
72337;SDS011;60294;64.134;-21.862;2022-11-27T11:21:46;0.10;;;0.10;;
72337;SDS011;60294;64.134;-21.862;2022-11-27T11:26:50;0.33;;;0.20;;
72337;SDS011;60294;64.134;-21.862;2022-11-27T11:31:52;0.10;;;0.10;;
72337;SDS011;60294;64.134;-21.862;2022-11-27T11:39:28;1.53;;;0.20;;
72337;SDS011;60294;64.134;-21.862;2022-11-27T11:41:57;0.10;;;0.10;;
72337;SDS011;60294;64.134;-21.862;2022-11-27T11:44:27;2.53;;;0.20;;
72337;SDS011;60294;64.134;-21.862;2022-11-27T11:46:59;0.10;;;0.10;;
72337;SDS011;60294;64.134;-21.862;2022-11-27T11:49:25;0.20;;;0.20;;
72337;SDS011;60294;64.134;-21.862;2022-11-27T11:54:48;0.10;;;0.10;;
72337;SDS011;60294;64.134;-21.862;2022-11-27T12:00:21;0.27;;;0.20;;
72337;SDS011;60294;64.134;-21.862;2022-11-27T12:11:14;0.10;;;0.10;;
72337;SDS011;60294;64.134;-21.862;2022-11-27T12:13:43;0.20;;;0.20;;
72337;SDS011;60294;64.134;-21.862;2022-11-27T12:16:26;0.20;;;0.20;;
72337;SDS011;60294;64.134;-21.862;2022-11-27T12:22:49;0.23;;;0.20;;
72337;SDS011;60294;64.134;-21.862;2022-11-27T12:35:50;0.30;;;0.20;;
72337;SDS011;60294;64.134;-21.862;2022-11-27T12:38:30;0.87;;;0.30;;
72337;SDS011;60294;64.134;-21.862;2022-11-27T12:41:29;1.30;;;0.30;;
72337;SDS011;60294;64.134;-21.862;2022-11-27T12:43:58;0.20;;;0.20;;
72337;SDS011;60294;64.134;-21.862;2022-11-27T12:49:04;0.10;;;0.10;;
72337;SDS011;60294;64.134;-21.862;2022-11-27T12:54:42;0.40;;;0.20;;
72337;SDS011;60294;64.134;-21.862;2022-11-27T12:57:12;0.30;;;0.30;;
72337;SDS011;60294;64.134;-21.862;2022-11-27T13:05:09;0.10;;;0.10;;
72337;SDS011;60294;64.134;-21.862;2022-11-27T13:07:48;1.47;;;0.20;;
72337;SDS011;60294;64.134;-21.862;2022-11-27T13:10:21;0.10;;;0.10;;
72337;SDS011;60294;64.134;-21.862;2022-11-27T13:23:40;0.73;;;0.40;;
72337;SDS011;60294;64.134;-21.862;2022-11-27T13:26:10;1.10;;;0.20;;
72337;SDS011;60294;64.134;-21.862;2022-11-27T13:28:51;0.20;;;0.20;;
72337;SDS011;60294;64.134;-21.862;2022-11-27T13:31:24;0.20;;;0.20;;
72337;SDS011;60294;64.134;-21.862;2022-11-27T13:33:56;0.20;;;0.10;;
72337;SDS011;60294;64.134;-21.862;2022-11-27T13:36:24;0.83;;;0.20;;
72337;SDS011;60294;64.134;-21.862;2022-11-27T13:38:54;0.30;;;0.30;;
72337;SDS011;60294;64.134;-21.862;2022-11-27T13:41:23;0.47;;;0.20;;
72337;SDS011;60294;64.134;-21.862;2022-11-27T13:43:56;0.93;;;0.20;;
72337;SDS011;60294;64.134;-21.862;2022-11-27T13:46:23;0.40;;;0.30;;
72337;SDS011;60294;64.134;-21.862;2022-11-27T13:48:58;0.10;;;0.10;;
72337;SDS011;60294;64.134;-21.862;2022-11-27T13:54:05;1.43;;;0.30;;
72337;SDS011;60294;64.134;-21.862;2022-11-27T13:56:32;0.20;;;0.20;;
72337;SDS011;60294;64.134;-21.862;2022-11-27T13:58:58;0.10;;;0.10;;
72337;SDS011;60294;64.134;-21.862;2022-11-27T14:01:24;0.10;;;0.10;;
72337;SDS011;60294;64.134;-21.862;2022-11-27T14:03:51;1.60;;;0.50;;
72337;SDS011;60294;64.134;-21.862;2022-11-27T14:09:05;3.57;;;0.40;;
72337;SDS011;60294;64.134;-21.862;2022-11-27T14:11:36;3.20;;;0.30;;
72337;SDS011;60294;64.134;-21.862;2022-11-27T14:16:40;0.43;;;0.17;;
72337;SDS011;60294;64.134;-21.862;2022-11-27T14:21:55;1.70;;;0.50;;
72337;SDS011;60294;64.134;-21.862;2022-11-27T14:24:25;1.50;;;0.30;;
72337;SDS011;60294;64.134;-21.862;2022-11-27T14:26:52;0.40;;;0.20;;
72337;SDS011;60294;64.134;-21.862;2022-11-27T14:29:19;0.70;;;0.20;;
72337;SDS011;60294;64.134;-21.862;2022-11-27T14:32:00;0.20;;;0.10;;
72337;SDS011;60294;64.134;-21.862;2022-11-27T14:36:53;0.47;;;0.20;;
72337;SDS011;60294;64.134;-21.862;2022-11-27T14:39:29;0.20;;;0.20;;
72337;SDS011;60294;64.134;-21.862;2022-11-27T14:42:00;1.70;;;0.40;;
72337;SDS011;60294;64.134;-21.862;2022-11-27T14:44:28;0.30;;;0.30;;
72337;SDS011;60294;64.134;-21.862;2022-11-27T14:46:54;0.43;;;0.30;;
72337;SDS011;60294;64.134;-21.862;2022-11-27T14:49:23;0.20;;;0.20;;
72337;SDS011;60294;64.134;-21.862;2022-11-27T14:51:51;1.90;;;0.30;;
72337;SDS011;60294;64.134;-21.862;2022-11-27T14:54:24;0.67;;;0.30;;
72337;SDS011;60294;64.134;-21.862;2022-11-27T14:56:55;1.80;;;0.30;;
72337;SDS011;60294;64.134;-21.862;2022-11-27T14:59:23;0.30;;;0.30;;
72337;SDS011;60294;64.134;-21.862;2022-11-27T15:02:00;0.20;;;0.20;;
72337;SDS011;60294;64.134;-21.862;2022-11-27T15:04:37;0.57;;;0.33;;
72337;SDS011;60294;64.134;-21.862;2022-11-27T15:07:05;0.73;;;0.20;;
72337;SDS011;60294;64.134;-21.862;2022-11-27T15:09:47;0.20;;;0.20;;
72337;SDS011;60294;64.134;-21.862;2022-11-27T15:12:26;0.10;;;0.10;;
72337;SDS011;60294;64.134;-21.862;2022-11-27T15:14:55;0.93;;;0.40;;
72337;SDS011;60294;64.134;-21.862;2022-11-27T15:17:29;1.70;;;0.30;;
72337;SDS011;60294;64.134;-21.862;2022-11-27T15:19:58;0.50;;;0.30;;
72337;SDS011;60294;64.134;-21.862;2022-11-27T15:22:26;0.23;;;0.23;;
72337;SDS011;60294;64.134;-21.862;2022-11-27T15:25:02;0.30;;;0.20;;
72337;SDS011;60294;64.134;-21.862;2022-11-27T15:27:30;0.80;;;0.27;;
72337;SDS011;60294;64.134;-21.862;2022-11-27T15:29:59;0.17;;;0.10;;
72337;SDS011;60294;64.134;-21.862;2022-11-27T15:32:26;0.93;;;0.70;;
72337;SDS011;60294;64.134;-21.862;2022-11-27T15:35:14;0.63;;;0.20;;
72337;SDS011;60294;64.134;-21.862;2022-11-27T15:37:44;0.20;;;0.20;;
72337;SDS011;60294;64.134;-21.862;2022-11-27T15:40:21;0.27;;;0.27;;
72337;SDS011;60294;64.134;-21.862;2022-11-27T15:42:47;1.03;;;0.20;;
72337;SDS011;60294;64.134;-21.862;2022-11-27T15:45:13;1.23;;;0.40;;
72337;SDS011;60294;64.134;-21.862;2022-11-27T15:47:39;0.33;;;0.30;;
72337;SDS011;60294;64.134;-21.862;2022-11-27T15:50:05;5.10;;;0.90;;
72337;SDS011;60294;64.134;-21.862;2022-11-27T15:52:32;7.87;;;1.20;;
72337;SDS011;60294;64.134;-21.862;2022-11-27T15:54:57;5.37;;;0.50;;
72337;SDS011;60294;64.134;-21.862;2022-11-27T15:57:23;2.10;;;0.30;;
72337;SDS011;60294;64.134;-21.862;2022-11-27T15:59:50;2.70;;;0.93;;
72337;SDS011;60294;64.134;-21.862;2022-11-27T16:02:16;1.07;;;0.50;;
72337;SDS011;60294;64.134;-21.862;2022-11-27T16:04:42;0.23;;;0.23;;
72337;SDS011;60294;64.134;-21.862;2022-11-27T16:07:07;2.30;;;0.30;;
72337;SDS011;60294;64.134;-21.862;2022-11-27T16:09:33;0.53;;;0.40;;
72337;SDS011;60294;64.134;-21.862;2022-11-27T16:12:00;1.03;;;0.20;;
72337;SDS011;60294;64.134;-21.862;2022-11-27T16:14:26;4.73;;;0.60;;
72337;SDS011;60294;64.134;-21.862;2022-11-27T16:16:52;2.10;;;0.70;;
72337;SDS011;60294;64.134;-21.862;2022-11-27T16:19:18;3.43;;;0.87;;
72337;SDS011;60294;64.134;-21.862;2022-11-27T16:21:44;1.87;;;0.40;;
72337;SDS011;60294;64.134;-21.862;2022-11-27T16:24:11;1.73;;;0.30;;
72337;SDS011;60294;64.134;-21.862;2022-11-27T16:26:38;2.30;;;0.57;;
72337;SDS011;60294;64.134;-21.862;2022-11-27T16:29:05;1.33;;;0.37;;
72337;SDS011;60294;64.134;-21.862;2022-11-27T16:31:31;1.03;;;0.40;;
72337;SDS011;60294;64.134;-21.862;2022-11-27T16:33:57;0.70;;;0.33;;
72337;SDS011;60294;64.134;-21.862;2022-11-27T16:36:25;1.17;;;0.50;;
72337;SDS011;60294;64.134;-21.862;2022-11-27T16:38:51;5.10;;;1.23;;
72337;SDS011;60294;64.134;-21.862;2022-11-27T16:41:18;0.57;;;0.57;;